<?xml version="1.0" encoding="UTF-8" standalone="no" ?>
<gpx xmlns="http://www.topografix.com/GPX/1/1" xmlns:xsi="http://www.w3.org/2001/XMLSchema-instance" xsi:schemaLocation="http://www.topografix.com/GPX/1/1 http://www.topografix.com/GPX/1/1/gpx.xsd" version="1.1" creator="VisuGPX - https://www.visugpx.com">
  <metadata>
    <name>Portbail-Créances_trace-annotee</name>
    <desc><![CDATA[Base de travail pour tracé itinéraire côtier.]]></desc>
  </metadata>
  <wpt lat="49.33425" lon="-1.67513">
    <ele>18</ele>
    <name><![CDATA[Liaison voie verte]]></name>
    <desc><![CDATA[Connexion entre notre itinéraire et la voie verte venant de La Haye-du-Puits (liaison vers EV4)]]></desc>
  </wpt>
  <wpt lat="49.23726" lon="-1.59757">
    <ele>15</ele>
    <name><![CDATA[Traversée de la D650]]></name>
    <desc><![CDATA[Prudence pour la traversée de cette route !]]></desc>
    <type><![CDATA[danger]]></type>
  </wpt>
  <wpt lat="49.22489" lon="-1.56395">
    <ele>15.8</ele>
    <name><![CDATA[Passage sur le D650]]></name>
    <desc><![CDATA[Prudence sur ce tronçon !]]></desc>
    <type><![CDATA[danger]]></type>
  </wpt>
  <wpt lat="49.21792" lon="-1.56929">
    <ele>6.7</ele>
    <name><![CDATA[Prendre à gauche !]]></name>
    <desc><![CDATA[Attention au moment de prendre la petite route à gauche !]]></desc>
    <type><![CDATA[danger]]></type>
  </wpt>
  <wpt lat="49.3355" lon="-1.70013">
    <ele>9.4</ele>
    <name><![CDATA[Portbail-sur-Mer]]></name>
    <desc><![CDATA[Prendre le temps de profiter du site ! Un incontournable de la Manche !]]></desc>
    <type><![CDATA[patrimoine]]></type>
  </wpt>
  <trk>
    <name><![CDATA[Portbail-Créances_trace-annotee_1]]></name>
    <extensions>
      <line xmlns="http://www.topografix.com/GPX/gpx_style/0/2">
        <color>0000FF</color>
        <width>4</width>
      </line>
    </extensions>
    <trkseg>
      <trkpt lat="49.33434" lon="-1.69957">
        <ele>6</ele>
        <time>2021-11-30T08:00:00.000Z</time>
      </trkpt>
      <trkpt lat="49.33358" lon="-1.6983">
        <ele>6.8</ele>
        <time>2021-11-30T08:00:26.631Z</time>
      </trkpt>
      <trkpt lat="49.3322" lon="-1.69703">
        <ele>6.9</ele>
        <time>2021-11-30T08:01:02.487Z</time>
      </trkpt>
      <trkpt lat="49.33082" lon="-1.69502">
        <ele>6.9</ele>
        <time>2021-11-30T08:01:44.642Z</time>
      </trkpt>
      <trkpt lat="49.3302" lon="-1.69207">
        <ele>7</ele>
        <time>2021-11-30T08:02:29.600Z</time>
      </trkpt>
      <trkpt lat="49.32993" lon="-1.68974">
        <ele>7</ele>
        <time>2021-11-30T08:03:03.770Z</time>
      </trkpt>
      <trkpt lat="49.33041" lon="-1.68784">
        <ele>6</ele>
        <time>2021-11-30T08:03:25.775Z</time>
      </trkpt>
      <trkpt lat="49.33055" lon="-1.68573">
        <ele>8.8</ele>
        <time>2021-11-30T08:04:03.375Z</time>
      </trkpt>
      <trkpt lat="49.33082" lon="-1.68351">
        <ele>5</ele>
        <time>2021-11-30T08:04:22.864Z</time>
      </trkpt>
      <trkpt lat="49.33131" lon="-1.6815">
        <ele>10.4</ele>
        <time>2021-11-30T08:05:10.805Z</time>
      </trkpt>
      <trkpt lat="49.33248" lon="-1.67949">
        <ele>14.3</ele>
        <time>2021-11-30T08:05:59.653Z</time>
      </trkpt>
      <trkpt lat="49.33413" lon="-1.67463">
        <ele>18</ele>
        <time>2021-11-30T08:07:27.069Z</time>
      </trkpt>
      <trkpt lat="49.33027" lon="-1.67379">
        <ele>6.4</ele>
        <time>2021-11-30T08:08:16.559Z</time>
      </trkpt>
      <trkpt lat="49.3291" lon="-1.67537">
        <ele>11.7</ele>
        <time>2021-11-30T08:09:06.712Z</time>
      </trkpt>
      <trkpt lat="49.32807" lon="-1.67569">
        <ele>18</ele>
        <time>2021-11-30T08:09:50.263Z</time>
      </trkpt>
      <trkpt lat="49.32573" lon="-1.67452">
        <ele>20.7</ele>
        <time>2021-11-30T08:10:50.882Z</time>
      </trkpt>
      <trkpt lat="49.32394" lon="-1.67178">
        <ele>22.3</ele>
        <time>2021-11-30T08:11:50.349Z</time>
      </trkpt>
      <trkpt lat="49.32304" lon="-1.6712">
        <ele>22.3</ele>
        <time>2021-11-30T08:12:11.977Z</time>
      </trkpt>
      <trkpt lat="49.32125" lon="-1.67025">
        <ele>21.1</ele>
        <time>2021-11-30T08:12:50.228Z</time>
      </trkpt>
      <trkpt lat="49.32042" lon="-1.6685">
        <ele>21.7</ele>
        <time>2021-11-30T08:13:22.750Z</time>
      </trkpt>
      <trkpt lat="49.3196" lon="-1.66686">
        <ele>21.5</ele>
        <time>2021-11-30T08:13:51.936Z</time>
      </trkpt>
      <trkpt lat="49.31898" lon="-1.6648">
        <ele>20.5</ele>
        <time>2021-11-30T08:14:21.628Z</time>
      </trkpt>
      <trkpt lat="49.31812" lon="-1.66512">
        <ele>17.2</ele>
        <time>2021-11-30T08:14:32.036Z</time>
      </trkpt>
      <trkpt lat="49.31701" lon="-1.66528">
        <ele>15</ele>
        <time>2021-11-30T08:14:47.858Z</time>
      </trkpt>
      <trkpt lat="49.31622" lon="-1.66459">
        <ele>15.6</ele>
        <time>2021-11-30T08:15:09.295Z</time>
      </trkpt>
      <trkpt lat="49.31491" lon="-1.6628">
        <ele>19</ele>
        <time>2021-11-30T08:15:56.552Z</time>
      </trkpt>
      <trkpt lat="49.31402" lon="-1.66169">
        <ele>20.5</ele>
        <time>2021-11-30T08:16:25.424Z</time>
      </trkpt>
      <trkpt lat="49.31312" lon="-1.66037">
        <ele>21.2</ele>
        <time>2021-11-30T08:16:54.510Z</time>
      </trkpt>
      <trkpt lat="49.31285" lon="-1.65968">
        <ele>20</ele>
        <time>2021-11-30T08:17:01.690Z</time>
      </trkpt>
      <trkpt lat="49.30837" lon="-1.65836">
        <ele>14</ele>
        <time>2021-11-30T08:18:11.860Z</time>
      </trkpt>
      <trkpt lat="49.30585" lon="-1.6583">
        <ele>9.1</ele>
        <time>2021-11-30T08:18:47.748Z</time>
      </trkpt>
      <trkpt lat="49.30231" lon="-1.65846">
        <ele>18</ele>
        <time>2021-11-30T08:20:29.675Z</time>
      </trkpt>
      <trkpt lat="49.30141" lon="-1.65751">
        <ele>19</ele>
        <time>2021-11-30T08:20:56.097Z</time>
      </trkpt>
      <trkpt lat="49.3" lon="-1.65561">
        <ele>20</ele>
        <time>2021-11-30T08:21:39.817Z</time>
      </trkpt>
      <trkpt lat="49.29876" lon="-1.65355">
        <ele>21.6</ele>
        <time>2021-11-30T08:22:23.851Z</time>
      </trkpt>
      <trkpt lat="49.29621" lon="-1.6507">
        <ele>27.4</ele>
        <time>2021-11-30T08:23:47.915Z</time>
      </trkpt>
      <trkpt lat="49.29431" lon="-1.6499">
        <ele>20.7</ele>
        <time>2021-11-30T08:24:11.856Z</time>
      </trkpt>
      <trkpt lat="49.29255" lon="-1.65017">
        <ele>17.4</ele>
        <time>2021-11-30T08:24:37.279Z</time>
      </trkpt>
      <trkpt lat="49.29159" lon="-1.64996">
        <ele>15.8</ele>
        <time>2021-11-30T08:24:51.584Z</time>
      </trkpt>
      <trkpt lat="49.28935" lon="-1.65059">
        <ele>16</ele>
        <time>2021-11-30T08:25:42.450Z</time>
      </trkpt>
      <trkpt lat="49.2888" lon="-1.65043">
        <ele>15.8</ele>
        <time>2021-11-30T08:25:54.209Z</time>
      </trkpt>
      <trkpt lat="49.28725" lon="-1.65725">
        <ele>15</ele>
        <time>2021-11-30T08:27:35.930Z</time>
      </trkpt>
      <trkpt lat="49.28642" lon="-1.65661">
        <ele>15</ele>
        <time>2021-11-30T08:27:56.514Z</time>
      </trkpt>
      <trkpt lat="49.28511" lon="-1.65471">
        <ele>13.6</ele>
        <time>2021-11-30T08:28:26.300Z</time>
      </trkpt>
      <trkpt lat="49.2837" lon="-1.65191">
        <ele>15</ele>
        <time>2021-11-30T08:29:20.430Z</time>
      </trkpt>
      <trkpt lat="49.28232" lon="-1.64901">
        <ele>14.3</ele>
        <time>2021-11-30T08:30:10.037Z</time>
      </trkpt>
      <trkpt lat="49.2817" lon="-1.64747">
        <ele>14</ele>
        <time>2021-11-30T08:30:35.212Z</time>
      </trkpt>
      <trkpt lat="49.28125" lon="-1.64589">
        <ele>14.9</ele>
        <time>2021-11-30T08:31:02.100Z</time>
      </trkpt>
      <trkpt lat="49.2806" lon="-1.64557">
        <ele>14.9</ele>
        <time>2021-11-30T08:31:17.226Z</time>
      </trkpt>
      <trkpt lat="49.27949" lon="-1.64589">
        <ele>14</ele>
        <time>2021-11-30T08:31:35.828Z</time>
      </trkpt>
      <trkpt lat="49.27811" lon="-1.64013">
        <ele>11.7</ele>
        <time>2021-11-30T08:32:57.343Z</time>
      </trkpt>
      <trkpt lat="49.27811" lon="-1.63907">
        <ele>13.2</ele>
        <time>2021-11-30T08:33:16.463Z</time>
      </trkpt>
      <trkpt lat="49.27853" lon="-1.6358">
        <ele>16.3</ele>
        <time>2021-11-30T08:34:11.871Z</time>
      </trkpt>
      <trkpt lat="49.27877" lon="-1.63474">
        <ele>15.4</ele>
        <time>2021-11-30T08:34:23.255Z</time>
      </trkpt>
      <trkpt lat="49.27805" lon="-1.63342">
        <ele>20.3</ele>
        <time>2021-11-30T08:35:04.694Z</time>
      </trkpt>
      <trkpt lat="49.27732" lon="-1.63189">
        <ele>18.4</ele>
        <time>2021-11-30T08:35:23.193Z</time>
      </trkpt>
      <trkpt lat="49.27701" lon="-1.63009">
        <ele>21.9</ele>
        <time>2021-11-30T08:35:59.752Z</time>
      </trkpt>
      <trkpt lat="49.27625" lon="-1.62856">
        <ele>23</ele>
        <time>2021-11-30T08:36:29.976Z</time>
      </trkpt>
      <trkpt lat="49.27549" lon="-1.62644">
        <ele>21.4</ele>
        <time>2021-11-30T08:36:55.221Z</time>
      </trkpt>
      <trkpt lat="49.27474" lon="-1.62407">
        <ele>16.7</ele>
        <time>2021-11-30T08:37:17.603Z</time>
      </trkpt>
      <trkpt lat="49.27415" lon="-1.62153">
        <ele>13.5</ele>
        <time>2021-11-30T08:37:43.027Z</time>
      </trkpt>
      <trkpt lat="49.27391" lon="-1.61884">
        <ele>12.1</ele>
        <time>2021-11-30T08:38:12.229Z</time>
      </trkpt>
      <trkpt lat="49.27394" lon="-1.61656">
        <ele>12.4</ele>
        <time>2021-11-30T08:38:45.814Z</time>
      </trkpt>
      <trkpt lat="49.27436" lon="-1.6135">
        <ele>12.6</ele>
        <time>2021-11-30T08:39:31.425Z</time>
      </trkpt>
      <trkpt lat="49.27146" lon="-1.61022">
        <ele>22.6</ele>
        <time>2021-11-30T08:41:18.486Z</time>
      </trkpt>
      <trkpt lat="49.26777" lon="-1.60827">
        <ele>33</ele>
        <time>2021-11-30T08:43:12.883Z</time>
      </trkpt>
      <trkpt lat="49.26636" lon="-1.60764">
        <ele>34</ele>
        <time>2021-11-30T08:43:47.588Z</time>
      </trkpt>
      <trkpt lat="49.26388" lon="-1.60589">
        <ele>33</ele>
        <time>2021-11-30T08:44:44.865Z</time>
      </trkpt>
      <trkpt lat="49.2626" lon="-1.60536">
        <ele>32.2</ele>
        <time>2021-11-30T08:45:11.755Z</time>
      </trkpt>
      <trkpt lat="49.26012" lon="-1.60605">
        <ele>24.8</ele>
        <time>2021-11-30T08:45:43.885Z</time>
      </trkpt>
      <trkpt lat="49.25805" lon="-1.61107">
        <ele>20</ele>
        <time>2021-11-30T08:46:44.084Z</time>
      </trkpt>
      <trkpt lat="49.25581" lon="-1.61276">
        <ele>14.8</ele>
        <time>2021-11-30T08:47:19.067Z</time>
      </trkpt>
      <trkpt lat="49.2545" lon="-1.61022">
        <ele>10</ele>
        <time>2021-11-30T08:47:48.034Z</time>
      </trkpt>
      <trkpt lat="49.25281" lon="-1.6079">
        <ele>16.6</ele>
        <time>2021-11-30T08:48:56.568Z</time>
      </trkpt>
      <trkpt lat="49.25026" lon="-1.60637">
        <ele>16.9</ele>
        <time>2021-11-30T08:49:57.858Z</time>
      </trkpt>
      <trkpt lat="49.24908" lon="-1.60447">
        <ele>20</ele>
        <time>2021-11-30T08:50:43.328Z</time>
      </trkpt>
      <trkpt lat="49.2486" lon="-1.60415">
        <ele>20.1</ele>
        <time>2021-11-30T08:50:55.133Z</time>
      </trkpt>
      <trkpt lat="49.24663" lon="-1.60362">
        <ele>19.9</ele>
        <time>2021-11-30T08:51:38.778Z</time>
      </trkpt>
      <trkpt lat="49.24405" lon="-1.60172">
        <ele>17</ele>
        <time>2021-11-30T08:52:24.576Z</time>
      </trkpt>
      <trkpt lat="49.24294" lon="-1.60114">
        <ele>16</ele>
        <time>2021-11-30T08:52:43.747Z</time>
      </trkpt>
      <trkpt lat="49.24032" lon="-1.60003">
        <ele>13</ele>
        <time>2021-11-30T08:53:26.720Z</time>
      </trkpt>
      <trkpt lat="49.23856" lon="-1.59823">
        <ele>14</ele>
        <time>2021-11-30T08:54:15.729Z</time>
      </trkpt>
      <trkpt lat="49.2377" lon="-1.5976">
        <ele>14.9</ele>
        <time>2021-11-30T08:54:38.850Z</time>
      </trkpt>
      <trkpt lat="49.23611" lon="-1.59628">
        <ele>14</ele>
        <time>2021-11-30T08:55:16.081Z</time>
      </trkpt>
      <trkpt lat="49.23542" lon="-1.5948">
        <ele>10.2</ele>
        <time>2021-11-30T08:55:30.806Z</time>
      </trkpt>
      <trkpt lat="49.23518" lon="-1.59358">
        <ele>8</ele>
        <time>2021-11-30T08:55:41.748Z</time>
      </trkpt>
      <trkpt lat="49.23546" lon="-1.59221">
        <ele>7</ele>
        <time>2021-11-30T08:55:56.638Z</time>
      </trkpt>
      <trkpt lat="49.23566" lon="-1.58994">
        <ele>7.4</ele>
        <time>2021-11-30T08:56:30.607Z</time>
      </trkpt>
      <trkpt lat="49.23497" lon="-1.58793">
        <ele>7</ele>
        <time>2021-11-30T08:57:02.154Z</time>
      </trkpt>
      <trkpt lat="49.2338" lon="-1.58597">
        <ele>7</ele>
        <time>2021-11-30T08:57:40.572Z</time>
      </trkpt>
      <trkpt lat="49.23315" lon="-1.58492">
        <ele>7.2</ele>
        <time>2021-11-30T08:58:01.918Z</time>
      </trkpt>
      <trkpt lat="49.23173" lon="-1.58423">
        <ele>6.2</ele>
        <time>2021-11-30T08:58:31.847Z</time>
      </trkpt>
      <trkpt lat="49.23063" lon="-1.58217">
        <ele>6.7</ele>
        <time>2021-11-30T08:59:11.388Z</time>
      </trkpt>
      <trkpt lat="49.22942" lon="-1.58037">
        <ele>6.6</ele>
        <time>2021-11-30T08:59:48.427Z</time>
      </trkpt>
      <trkpt lat="49.22835" lon="-1.57842">
        <ele>6</ele>
        <time>2021-11-30T09:00:23.348Z</time>
      </trkpt>
      <trkpt lat="49.22845" lon="-1.5772">
        <ele>7.6</ele>
        <time>2021-11-30T09:00:45.110Z</time>
      </trkpt>
      <trkpt lat="49.22794" lon="-1.57446">
        <ele>12.4</ele>
        <time>2021-11-30T09:01:39.088Z</time>
      </trkpt>
      <trkpt lat="49.22725" lon="-1.57271">
        <ele>13.9</ele>
        <time>2021-11-30T09:02:12.059Z</time>
      </trkpt>
      <trkpt lat="49.22663" lon="-1.56954">
        <ele>12</ele>
        <time>2021-11-30T09:02:47.257Z</time>
      </trkpt>
      <trkpt lat="49.22497" lon="-1.56436">
        <ele>15</ele>
        <time>2021-11-30T09:04:17.313Z</time>
      </trkpt>
      <trkpt lat="49.22366" lon="-1.56489">
        <ele>15</ele>
        <time>2021-11-30T09:04:47.333Z</time>
      </trkpt>
      <trkpt lat="49.21917" lon="-1.56801">
        <ele>7.6</ele>
        <time>2021-11-30T09:06:01.424Z</time>
      </trkpt>
      <trkpt lat="49.21789" lon="-1.56896">
        <ele>7.3</ele>
        <time>2021-11-30T09:06:31.953Z</time>
      </trkpt>
      <trkpt lat="49.21731" lon="-1.5679">
        <ele>6.9</ele>
        <time>2021-11-30T09:06:50.693Z</time>
      </trkpt>
      <trkpt lat="49.21707" lon="-1.56669">
        <ele>7.1</ele>
        <time>2021-11-30T09:07:09.408Z</time>
      </trkpt>
      <trkpt lat="49.21672" lon="-1.56595">
        <ele>7.1</ele>
        <time>2021-11-30T09:07:22.630Z</time>
      </trkpt>
      <trkpt lat="49.21645" lon="-1.56484">
        <ele>6.7</ele>
        <time>2021-11-30T09:07:38.514Z</time>
      </trkpt>
      <trkpt lat="49.21596" lon="-1.56405">
        <ele>6.9</ele>
        <time>2021-11-30T09:07:54.696Z</time>
      </trkpt>
      <trkpt lat="49.21527" lon="-1.56394">
        <ele>8</ele>
        <time>2021-11-30T09:08:12.678Z</time>
      </trkpt>
      <trkpt lat="49.21462" lon="-1.56304">
        <ele>6.6</ele>
        <time>2021-11-30T09:08:25.691Z</time>
      </trkpt>
      <trkpt lat="49.21358" lon="-1.56304">
        <ele>6</ele>
        <time>2021-11-30T09:08:46.861Z</time>
      </trkpt>
      <trkpt lat="49.21199" lon="-1.56104">
        <ele>6</ele>
        <time>2021-11-30T09:09:32.456Z</time>
      </trkpt>
      <trkpt lat="49.21134" lon="-1.56035">
        <ele>6.1</ele>
        <time>2021-11-30T09:09:50.186Z</time>
      </trkpt>
      <trkpt lat="49.2112" lon="-1.55966">
        <ele>6.7</ele>
        <time>2021-11-30T09:10:02.022Z</time>
      </trkpt>
      <trkpt lat="49.2113" lon="-1.55845">
        <ele>7.2</ele>
        <time>2021-11-30T09:10:20.751Z</time>
      </trkpt>
      <trkpt lat="49.21082" lon="-1.55855">
        <ele>7</ele>
        <time>2021-11-30T09:10:30.845Z</time>
      </trkpt>
      <trkpt lat="49.20885" lon="-1.55982">
        <ele>7</ele>
        <time>2021-11-30T09:11:18.204Z</time>
      </trkpt>
      <trkpt lat="49.2064" lon="-1.56088">
        <ele>11.1</ele>
        <time>2021-11-30T09:12:24.373Z</time>
      </trkpt>
      <trkpt lat="49.20516" lon="-1.56183">
        <ele>13</ele>
        <time>2021-11-30T09:12:59.504Z</time>
      </trkpt>
      <trkpt lat="49.20416" lon="-1.56325">
        <ele>13.3</ele>
        <time>2021-11-30T09:13:30.348Z</time>
      </trkpt>
      <trkpt lat="49.20285" lon="-1.56542">
        <ele>17.5</ele>
        <time>2021-11-30T09:14:23.761Z</time>
      </trkpt>
      <trkpt lat="49.20222" lon="-1.56595">
        <ele>19</ele>
        <time>2021-11-30T09:14:43.452Z</time>
      </trkpt>
      <trkpt lat="49.20153" lon="-1.56611">
        <ele>19.5</ele>
        <time>2021-11-30T09:15:00.000Z</time>
      </trkpt>
    </trkseg>
  </trk>
</gpx>